Diaz, Arkansas
Current Conditions -  °F | °C
As of 12:56 AM on Tuesday 21 Oct 2014 (Local Time) from KM19 Reporting Station
Clear Clear  
Wind Chill: 58°   Ceiling: Unl
Heat Index: 58°   Visibility: 10mi
Dew Point: 56°   Wind: 0mph
Humidity: 93%   Direction: NA
Pressure: 30.04"   Gusts: NA
Location:  35.64°N, 91.27°W
Report Text: KM19 210556Z AUTO 00000KT 10SM CLR 14/13 A3004 RMK AO2 58002 T01440133 10194 20144 SLP169
Loading
Personal Weather Stations






























Interactive Weather Map
Tropical Storm Tracking
New forecast layout! Learn more

10-Day Weather Forecast

Advertisements
Track Severe Weather on mobile